Estación de Santa María

Ultimos registro cada 15 minutos 75
Estación Fecha / Hora Temperatura Humedad Lluvia Velocidad Dirección Radiación Presion
75 Santa María 04-09-2026 18:30 16,6 43,1 0 0 192 3,1 935,5
74 Santa María 04-09-2026 18:15 17,8 41,4 0 0,5 199 10,6 935,4
73 Santa María 04-09-2026 18:00 18,9 37,4 0 0,5 194 61,9 935,1
72 Santa María 04-09-2026 17:45 19,6 35,8 0 0,5 204 106,9 934,9
71 Santa María 04-09-2026 17:30 19,9 33,7 0 2 202 169,4 934,9
70 Santa María 04-09-2026 17:15 20,1 32,1 0 2 204 221,9 934,8
69 Santa María 04-09-2026 17:00 20,8 32,8 0 1 205 51,9 934,7
68 Santa María 04-09-2026 16:45 20,7 30,3 0 0 202 329,4 934,9
67 Santa María 04-09-2026 16:30 20,6 32,4 0 2 202 379,4 934,8
66 Santa María 04-09-2026 16:15 21,3 31,2 0 1,5 208 429,4 934,7
65 Santa María 04-09-2026 16:00 21,2 31,2 0 2 202 478,1 934,9
64 Santa María 04-09-2026 15:45 21,3 32,9 0 2 205 526,9 934,7
63 Santa María 04-09-2026 15:30 21,1 37,7 0 2,5 208 560,6 934,5
62 Santa María 04-09-2026 15:15 22,4 39 0 1,5 212 600,6 934,6
61 Santa María 04-09-2026 15:00 22,7 37,8 0 1 213 659,4 934,5
60 Santa María 04-09-2026 14:45 22,6 43,2 0 1 55 679,4 934,6
59 Santa María 04-09-2026 14:30 23,2 42,4 0 0,5 326 711,9 934,7
58 Santa María 04-09-2026 14:15 22,6 43,7 0 0 222 741,9 934,5
57 Santa María 04-09-2026 14:00 21,4 45,3 0 0 300 765,6 934,9
56 Santa María 04-09-2026 13:45 22,3 45,3 0 0,5 244 786,9 935
55 Santa María 04-09-2026 13:30 21 49,5 0 0,5 244 801,9 935,2
54 Santa María 04-09-2026 13:15 20,7 51,4 0 0,5 236 820,6 935,5
53 Santa María 04-09-2026 13:00 21,2 52,8 0 0,5 326 818,1 935,7
52 Santa María 04-09-2026 12:45 20,8 54,3 0 0 268 823,1 935,9
51 Santa María 04-09-2026 12:30 20,5 54,4 0 0 7 796,9 936
50 Santa María 04-09-2026 12:15 19,2 59,1 0 0 234 806,9 936,3
49 Santa María 04-09-2026 12:00 18,7 58,8 0 0,5 295 798,1 936,6
48 Santa María 04-09-2026 11:45 19 59,8 0 0 303 771,9 936,8
47 Santa María 04-09-2026 11:30 18 62,6 0 0 306 746,9 937
46 Santa María 04-09-2026 11:15 18 62,7 0 0,5 296 730,6 937,1
45 Santa María 04-09-2026 11:00 17,9 62,9 0 0 205 703,1 937,4
44 Santa María 04-09-2026 10:45 16,2 66,2 0 0 135 673,1 937,6
43 Santa María 04-09-2026 10:30 15,9 67 0 0 201 639,4 937,6
42 Santa María 04-09-2026 10:15 16,2 61,9 0 0 233 606,9 937,9
41 Santa María 04-09-2026 10:00 15,3 64,5 0 0 261 560,6 937,9
40 Santa María 04-09-2026 09:45 14,7 64,5 0 0 272 498,1 937,9
39 Santa María 04-09-2026 09:30 14,9 66,4 0 0 271 468,1 938,1
38 Santa María 04-09-2026 09:15 14 71,3 0 0 187 418,1 938,1
37 Santa María 04-09-2026 09:00 13,6 71,7 0 0 74 366,9 938,2
36 Santa María 04-09-2026 08:45 13,6 69,4 0 0 74 319,4 938,1
35 Santa María 04-09-2026 08:30 11,7 76,7 0 0 74 56,9 938,2
34 Santa María 04-09-2026 08:15 10 80,1 0 0 74 165,6 938,1
33 Santa María 04-09-2026 08:00 8,5 84,6 0 0 70 130,6 938,1
32 Santa María 04-09-2026 07:45 7 88,3 0 0 70 35,6 938,1
31 Santa María 04-09-2026 07:30 6 90,7 0 0 70 11,9 938
30 Santa María 04-09-2026 07:15 5,5 91,7 0 0 70 5,6 938,1
29 Santa María 04-09-2026 07:00 5,7 89,3 0 0 70 1,9 938
28 Santa María 04-09-2026 06:45 6,9 88,3 0 0 70 0,6 937,6
27 Santa María 04-09-2026 06:30 7 89,6 0 0 73 0,6 937,8
26 Santa María 04-09-2026 06:15 6,3 89,7 0 0 73 0,6 937,8
25 Santa María 04-09-2026 06:00 6,8 89,2 0 0 73 0,6 937,8
24 Santa María 04-09-2026 05:45 7 89,4 0 0 73 0,6 937,7
23 Santa María 04-09-2026 05:30 7,2 90 0 0 69 0,6 937,7
22 Santa María 04-09-2026 05:15 7,1 88,8 0 0 65 0,6 937,7
21 Santa María 04-09-2026 05:00 7,6 88,1 0 0 65 0,6 937,8
20 Santa María 04-09-2026 04:45 7,9 88,2 0 0 66 0,6 937,7
19 Santa María 04-09-2026 04:30 8 88,3 0 0 65 0,6 937,7
18 Santa María 04-09-2026 04:15 7,8 89,1 0 0 65 0,6 937,7
17 Santa María 04-09-2026 04:00 8 87,1 0 0 65 0,6 937,7
16 Santa María 04-09-2026 03:45 7,9 88,9 0 0 66 0,6 937,7
15 Santa María 04-09-2026 03:30 8 88 0 0 66 0,6 937,9
14 Santa María 04-09-2026 03:15 8 89,8 0 0 66 0,6 938
13 Santa María 04-09-2026 03:00 7,7 89,7 0 0 66 0,6 938,2
12 Santa María 04-09-2026 02:45 8,3 86,1 0 0 66 0,6 938,4
11 Santa María 04-09-2026 02:30 8,4 88,2 0 0 66 0,6 938,4
10 Santa María 04-09-2026 02:15 8,9 85,7 0 0 66 0,6 938,5
9 Santa María 04-09-2026 02:00 9 89,2 0 0 66 0,6 938,5
8 Santa María 04-09-2026 01:45 8,3 88,9 0 0 65 0,6 938,6
7 Santa María 04-09-2026 01:30 8,4 88 0 0 65 0,6 938,8
6 Santa María 04-09-2026 01:15 9,4 85,8 0 0 65 0,6 939
5 Santa María 04-09-2026 01:00 9,8 85,3 0 0 65 0,6 938,9
4 Santa María 04-09-2026 00:45 10,1 83,3 0 0 65 0,6 939
3 Santa María 04-09-2026 00:30 11,1 80,9 0 0 67 0,6 939
2 Santa María 04-09-2026 00:15 11 80,8 0 0 67 0,6 939
1 Santa María 04-09-2026 00:00 11,2 80,9 0 0 65 0,6 939,1